Quartz — V7KN5 — position and weather

sailwx.info

Track history (hours):
 
Tides and Currents Weather Stations Pressure Air Temp Water Temp Dewpoint Dewpoint Depression Visibility Wind Speed Wind Dir Waves Ship Positions

Quartz

Last reported at 2018-Aug-14 10:23 UTC. Time now 2018-Aug-21 04:20 UTC.
Position N 28°44' W 094°25'.

Length 183 m; draft 10.6 m.

Type: Tanker. MMSI: 538006178.

Date/timePositionNaut miles runAvg speedWind from/ knotsBaromVisibWave heightAir tempDewpointWater temp
2018-Aug-14 10:23N 28°44' W 094°25'511.7
2018-Aug-14 09:55N 28°49' W 094°26'511.9
2018-Aug-14 09:29N 28°54' W 094°26'811.9
2018-Aug-14 08:49N 29°02' W 094°26'511.5
2018-Aug-14 08:25N 29°07' W 094°26'611.6
2018-Aug-14 07:54N 29°11' W 094°31'511.5
2018-Aug-14 07:31N 29°15' W 094°34'611.0
2018-Aug-14 06:55N 29°19' W 094°39'512.3
2018-Aug-14 06:30N 29°21' W 094°45'611.7
2018-Aug-14 06:00N 29°25' W 094°49'611.8
2018-Aug-14 05:30N 29°30' W 094°52'611.2
2018-Aug-14 05:00N 29°35' W 094°56'510.7
2018-Aug-14 04:30N 29°40' W 094°58'4 8.3
2018-Aug-14 04:01N 29°43' W 095°01'4 7.4
2018-Aug-14 03:30N 29°46' W 095°04'3 6.2
2018-Aug-14 03:00N 29°44' W 095°07'3 5.5
2018-Aug-14 02:30N 29°45' W 095°10'1 0.0
2018-Aug-12 14:36N 29°44' W 095°12'0 0.7
2018-Aug-12 14:31N 29°44' W 095°12'2 4.1
2018-Aug-12 14:00N 29°45' W 095°10'3 5.6
2018-Aug-12 13:31N 29°44' W 095°07'2 4.8
2018-Aug-12 13:00N 29°45' W 095°04'3 6.6
2018-Aug-12 12:30N 29°42' W 095°01'4 8.9
2018-Aug-12 12:00N 29°39' W 094°58'510.7
2018-Aug-12 11:30N 29°34' W 094°55'611.6
2018-Aug-12 11:01N 29°29' W 094°52'612.4
2018-Aug-12 10:31N 29°23' W 094°49'5 9.3
2018-Aug-12 10:01N 29°21' W 094°44'0 0.1
2018-Aug-12 09:29N 29°21' W 094°44'0 0.1
2018-Aug-12 08:59N 29°21' W 094°44'0 0.1
2018-Aug-12 08:29N 29°21' W 094°44'0 0.0
2018-Aug-12 07:59N 29°21' W 094°44'0 0.1
2018-Aug-12 07:29N 29°21' W 094°44'0 0.1
2018-Aug-12 06:59N 29°21' W 094°44'0 0.1
2018-Aug-12 06:29N 29°21' W 094°44'0 0.1
2018-Aug-12 05:59N 29°21' W 094°44'0 0.1
2018-Aug-12 05:29N 29°21' W 094°44'0 0.0
2018-Aug-12 04:59N 29°21' W 094°44'0 0.0
2018-Aug-12 04:29N 29°21' W 094°44'0 0.0
2018-Aug-12 03:59N 29°21' W 094°44'0 0.0
2018-Aug-12 03:29N 29°21' W 094°44'0 0.0
2018-Aug-12 02:59N 29°21' W 094°44'0 0.0
2018-Aug-12 02:29N 29°21' W 094°44'0 0.0
2018-Aug-12 01:59N 29°21' W 094°44'0 0.0
2018-Aug-12 01:29N 29°21' W 094°44'0 0.0
2018-Aug-12 00:59N 29°21' W 094°44'0 0.0
2018-Aug-12 00:29N 29°21' W 094°44'0 0.0
2018-Aug-11 23:59N 29°21' W 094°44'0 0.1
2018-Aug-11 23:29N 29°21' W 094°44'0 0.0
2018-Aug-11 22:59N 29°21' W 094°44'0 0.0
2018-Aug-11 22:26N 29°21' W 094°44'0 0.0
2018-Aug-11 21:59N 29°21' W 094°44'0 0.0
2018-Aug-11 21:26N 29°21' W 094°44'0 0.0
2018-Aug-11 20:59N 29°21' W 094°44'0 0.1
2018-Aug-11 20:29N 29°21' W 094°44'0 0.3
2018-Aug-11 20:00N 29°21' W 094°44'4 7.6
2018-Aug-11 19:30N 29°20' W 094°40'4 8.2
2018-Aug-11 19:00N 29°18' W 094°36'2 3.2
2018-Aug-11 18:24N 29°19' W 094°34'0 0.1
2018-Aug-11 18:00N 29°19' W 094°34'0 0.0
2018-Aug-11 16:33N 29°19' W 094°34'0 0.0
2018-Aug-11 16:30N 29°19' W 094°34'0 0.0
2018-Aug-11 13:57N 29°19' W 094°34'0 0.1
2018-Aug-11 13:30N 29°19' W 094°34'0 0.0
2018-Aug-11 13:00N 29°19' W 094°34'0 0.1
2018-Aug-11 12:21N 29°19' W 094°34'0 0.0
2018-Aug-11 12:00N 29°19' W 094°34'0 0.0
2018-Aug-11 11:03N 29°19' W 094°34'0 0.0
2018-Aug-11 00:15N 29°19' W 094°34'0 0.0
2018-Aug-10 21:24N 29°19' W 094°34'0 0.0
2018-Aug-10 21:00N 29°19' W 094°34'0 0.0
2018-Aug-10 20:30N 29°19' W 094°34'0 0.0
2018-Aug-10 20:00N 29°19' W 094°34'0 0.0
2018-Aug-10 19:30N 29°19' W 094°34'0 0.0
2018-Aug-10 18:57N 29°19' W 094°34'0 0.0
2018-Aug-10 17:54N 29°19' W 094°34'0 0.0
2018-Aug-10 16:03N 29°19' W 094°34'0 0.0
2018-Aug-10 03:09N 29°19' W 094°34'0 0.1
2018-Aug-10 02:57N 29°19' W 094°34'  
2018-Aug-07 17:21N 29°19' W 094°34'0 0.0
2018-Aug-07 16:54N 29°19' W 094°34'5 1.8
2018-Aug-07 14:26N 29°15' W 094°32'3 8.0
2018-Aug-07 14:00N 29°13' W 094°29'4 7.2
2018-Aug-07 13:30N 29°11' W 094°25'  
Track history (hours):
 
Tides and Currents Weather Stations Pressure Air Temp Water Temp Dewpoint Dewpoint Depression Visibility Wind Speed Wind Dir Waves Ship Positions

Quartz

Last reported at 2018-Aug-14 10:23 UTC. Time now 2018-Aug-21 04:20 UTC.
Position N 28°44' W 094°25'.

Length 183 m; draft 10.6 m.

Type: Tanker. MMSI: 538006178.

Date/timePositionNaut miles runAvg speedWind from/ knotsBaromVisibWave heightAir tempDewpointWater temp
2018-Aug-14 10:23N 28°44' W 094°25'511.7
2018-Aug-14 09:55N 28°49' W 094°26'511.9
2018-Aug-14 09:29N 28°54' W 094°26'811.9
2018-Aug-14 08:49N 29°02' W 094°26'511.5
2018-Aug-14 08:25N 29°07' W 094°26'611.6
2018-Aug-14 07:54N 29°11' W 094°31'511.5
2018-Aug-14 07:31N 29°15' W 094°34'611.0
2018-Aug-14 06:55N 29°19' W 094°39'512.3
2018-Aug-14 06:30N 29°21' W 094°45'611.7
2018-Aug-14 06:00N 29°25' W 094°49'611.8
2018-Aug-14 05:30N 29°30' W 094°52'611.2
2018-Aug-14 05:00N 29°35' W 094°56'510.7
2018-Aug-14 04:30N 29°40' W 094°58'4 8.3
2018-Aug-14 04:01N 29°43' W 095°01'4 7.4
2018-Aug-14 03:30N 29°46' W 095°04'3 6.2
2018-Aug-14 03:00N 29°44' W 095°07'3 5.5
2018-Aug-14 02:30N 29°45' W 095°10'1 0.0
2018-Aug-12 14:36N 29°44' W 095°12'0 0.7
2018-Aug-12 14:31N 29°44' W 095°12'2 4.1
2018-Aug-12 14:00N 29°45' W 095°10'3 5.6
2018-Aug-12 13:31N 29°44' W 095°07'2 4.8
2018-Aug-12 13:00N 29°45' W 095°04'3 6.6
2018-Aug-12 12:30N 29°42' W 095°01'4 8.9
2018-Aug-12 12:00N 29°39' W 094°58'510.7
2018-Aug-12 11:30N 29°34' W 094°55'611.6
2018-Aug-12 11:01N 29°29' W 094°52'612.4
2018-Aug-12 10:31N 29°23' W 094°49'5 9.3
2018-Aug-12 10:01N 29°21' W 094°44'0 0.1
2018-Aug-12 09:29N 29°21' W 094°44'0 0.1
2018-Aug-12 08:59N 29°21' W 094°44'0 0.1
2018-Aug-12 08:29N 29°21' W 094°44'0 0.0
2018-Aug-12 07:59N 29°21' W 094°44'0 0.1
2018-Aug-12 07:29N 29°21' W 094°44'0 0.1
2018-Aug-12 06:59N 29°21' W 094°44'0 0.1
2018-Aug-12 06:29N 29°21' W 094°44'0 0.1
2018-Aug-12 05:59N 29°21' W 094°44'0 0.1
2018-Aug-12 05:29N 29°21' W 094°44'0 0.0
2018-Aug-12 04:59N 29°21' W 094°44'0 0.0
2018-Aug-12 04:29N 29°21' W 094°44'0 0.0
2018-Aug-12 03:59N 29°21' W 094°44'0 0.0
2018-Aug-12 03:29N 29°21' W 094°44'0 0.0
2018-Aug-12 02:59N 29°21' W 094°44'0 0.0
2018-Aug-12 02:29N 29°21' W 094°44'0 0.0
2018-Aug-12 01:59N 29°21' W 094°44'0 0.0
2018-Aug-12 01:29N 29°21' W 094°44'0 0.0
2018-Aug-12 00:59N 29°21' W 094°44'0 0.0
2018-Aug-12 00:29N 29°21' W 094°44'0 0.0
2018-Aug-11 23:59N 29°21' W 094°44'0 0.1
2018-Aug-11 23:29N 29°21' W 094°44'0 0.0
2018-Aug-11 22:59N 29°21' W 094°44'0 0.0
2018-Aug-11 22:26N 29°21' W 094°44'0 0.0
2018-Aug-11 21:59N 29°21' W 094°44'0 0.0
2018-Aug-11 21:26N 29°21' W 094°44'0 0.0
2018-Aug-11 20:59N 29°21' W 094°44'0 0.1
2018-Aug-11 20:29N 29°21' W 094°44'0 0.3
2018-Aug-11 20:00N 29°21' W 094°44'4 7.6
2018-Aug-11 19:30N 29°20' W 094°40'4 8.2
2018-Aug-11 19:00N 29°18' W 094°36'2 3.2
2018-Aug-11 18:24N 29°19' W 094°34'0 0.1
2018-Aug-11 18:00N 29°19' W 094°34'0 0.0
2018-Aug-11 16:33N 29°19' W 094°34'0 0.0
2018-Aug-11 16:30N 29°19' W 094°34'0 0.0
2018-Aug-11 13:57N 29°19' W 094°34'0 0.1
2018-Aug-11 13:30N 29°19' W 094°34'0 0.0
2018-Aug-11 13:00N 29°19' W 094°34'0 0.1
2018-Aug-11 12:21N 29°19' W 094°34'0 0.0
2018-Aug-11 12:00N 29°19' W 094°34'0 0.0
2018-Aug-11 11:03N 29°19' W 094°34'0 0.0
2018-Aug-11 00:15N 29°19' W 094°34'0 0.0
2018-Aug-10 21:24N 29°19' W 094°34'0 0.0
2018-Aug-10 21:00N 29°19' W 094°34'0 0.0
2018-Aug-10 20:30N 29°19' W 094°34'0 0.0
2018-Aug-10 20:00N 29°19' W 094°34'0 0.0
2018-Aug-10 19:30N 29°19' W 094°34'0 0.0
2018-Aug-10 18:57N 29°19' W 094°34'0 0.0
2018-Aug-10 17:54N 29°19' W 094°34'0 0.0
2018-Aug-10 16:03N 29°19' W 094°34'0 0.0
2018-Aug-10 03:09N 29°19' W 094°34'0 0.1
2018-Aug-10 02:57N 29°19' W 094°34'  
2018-Aug-07 17:21N 29°19' W 094°34'0 0.0
2018-Aug-07 16:54N 29°19' W 094°34'5 1.8
2018-Aug-07 14:26N 29°15' W 094°32'3 8.0
2018-Aug-07 14:00N 29°13' W 094°29'4 7.2
2018-Aug-07 13:30N 29°11' W 094°25'  

Dump ship's entire track history